Time;durP1;ratioP1;P1;durP2;ratioP2;P2;SDS_P1;SDS_P2;PMS_P1;PMS_P2;Temp;Humidity;BMP_temperature;BMP_pressure;BME280_temperature;BME280_humidity;BME280_pressure;Samples;Min_cycle;Max_cycle;Signal;HPM_P1;HPM_P2
2023/03/22 00:00:35;;;;;;;0.10;0.10;;;9.00;99.90;;;;;;5042989;28;20109;-73
2023/03/22 00:03:01;;;;;;;0.10;0.10;;;9.00;99.90;;;;;;5043885;28;20482;-73
2023/03/22 00:05:28;;;;;;;0.20;0.20;;;9.00;99.90;;;;;;5056707;28;20033;-73
2023/03/22 00:07:56;;;;;;;0.10;0.10;;;9.00;99.90;;;;;;5039684;28;20025;-73
2023/03/22 00:10:24;;;;;;;0.10;0.10;;;9.00;99.90;;;;;;5056332;28;20009;-73
2023/03/22 00:12:50;;;;;;;0.10;0.10;;;9.00;99.90;;;;;;5056124;28;20482;-73
2023/03/22 00:15:16;;;;;;;0.10;0.10;;;9.00;99.90;;;;;;5056213;28;20025;-73
2023/03/22 00:17:43;;;;;;;0.10;0.10;;;9.00;99.90;;;;;;5056445;28;20052;-73
2023/03/22 00:20:10;;;;;;;0.15;0.15;;;9.00;99.90;;;;;;5056145;28;20025;-73
2023/03/22 00:22:36;;;;;;;0.10;0.10;;;9.00;99.90;;;;;;5056499;28;20037;-73
2023/03/22 00:25:02;;;;;;;0.10;0.10;;;9.00;99.90;;;;;;5037807;28;20017;-73
2023/03/22 00:27:28;;;;;;;0.13;0.13;;;9.00;99.90;;;;;;5038309;28;20231;-73
2023/03/22 00:29:54;;;;;;;0.20;0.20;;;8.90;99.90;;;;;;5056043;28;20112;-73
2023/03/22 00:32:19;;;;;;;0.10;0.10;;;9.00;99.90;;;;;;5038452;28;20111;-73
2023/03/22 00:34:45;;;;;;;0.10;0.10;;;9.00;99.90;;;;;;5055310;28;20482;-73
2023/03/22 00:37:10;;;;;;;0.17;0.17;;;9.00;99.90;;;;;;5056154;28;20025;-73
2023/03/22 00:39:36;;;;;;;0.10;0.10;;;9.00;99.90;;;;;;5055802;28;20029;-73
2023/03/22 00:42:05;;;;;;;0.10;0.10;;;9.00;99.90;;;;;;5055667;28;20056;-73
2023/03/22 00:44:30;;;;;;;0.10;0.10;;;9.00;99.90;;;;;;5055553;28;20021;-73
2023/03/22 00:46:56;;;;;;;0.10;0.10;;;9.00;99.90;;;;;;5055851;28;20100;-73
2023/03/22 00:49:22;;;;;;;0.10;0.10;;;8.90;99.90;;;;;;5055750;28;20564;-73
2023/03/22 00:51:47;;;;;;;0.20;0.20;;;8.90;99.90;;;;;;5046254;28;20048;-73
2023/03/22 00:54:13;;;;;;;0.10;0.10;;;8.90;99.90;;;;;;5055742;28;20103;-73
2023/03/22 00:56:38;;;;;;;0.10;0.10;;;8.90;99.90;;;;;;5055383;28;20482;-73
2023/03/22 00:59:04;;;;;;;0.10;0.10;;;9.00;99.90;;;;;;5055233;28;20025;-73
2023/03/22 01:01:30;;;;;;;0.20;0.20;;;9.00;99.90;;;;;;5055918;28;20083;-73
2023/03/22 01:03:56;;;;;;;0.10;0.10;;;8.90;99.90;;;;;;5055439;28;20083;-74
2023/03/22 01:06:21;;;;;;;0.13;0.13;;;8.90;99.90;;;;;;5055119;28;20028;-73
2023/03/22 01:08:49;;;;;;;0.10;0.10;;;8.90;99.90;;;;;;5055215;28;20025;-74
2023/03/22 01:11:16;;;;;;;0.10;0.10;;;8.90;99.90;;;;;;5055368;28;20028;-73
2023/03/22 01:13:41;;;;;;;0.20;0.20;;;8.90;99.90;;;;;;5055307;28;20110;-74
2023/03/22 01:16:08;;;;;;;0.20;0.20;;;9.00;99.90;;;;;;5054896;28;20029;-73
2023/03/22 01:18:35;;;;;;;0.20;0.20;;;9.00;99.90;;;;;;5055364;28;20047;-73
2023/03/22 01:21:01;;;;;;;0.10;0.10;;;9.00;99.90;;;;;;5055307;28;20111;-74
2023/03/22 01:23:26;;;;;;;0.20;0.20;;;9.00;99.90;;;;;;5055573;28;20086;-73
2023/03/22 01:25:52;;;;;;;0.20;0.20;;;9.00;99.90;;;;;;5056092;28;20044;-73
2023/03/22 01:28:17;;;;;;;0.10;0.10;;;9.00;99.90;;;;;;5055978;28;20028;-73
2023/03/22 01:30:43;;;;;;;0.10;0.10;;;8.90;99.90;;;;;;5055784;28;20104;-73
2023/03/22 01:33:09;;;;;;;0.17;0.17;;;8.90;99.90;;;;;;5055539;28;20107;-73
2023/03/22 01:35:35;;;;;;;0.10;0.10;;;8.90;99.90;;;;;;5037305;28;20116;-74
2023/03/22 01:38:00;;;;;;;0.10;0.10;;;8.90;99.90;;;;;;5054736;28;20044;-73
2023/03/22 01:40:26;;;;;;;0.10;0.10;;;8.90;99.90;;;;;;5054682;28;20382;-73
2023/03/22 01:42:53;;;;;;;0.20;0.20;;;8.90;99.90;;;;;;5036713;28;20028;-73
2023/03/22 01:45:30;;;;;;;0.20;0.20;;;8.90;99.90;;;;;;5054730;28;20024;-74
2023/03/22 01:48:27;;;;;;;0.10;0.10;;;8.90;99.90;;;;;;5036679;28;20025;-74
2023/03/22 01:51:06;;;;;;;0.13;0.13;;;8.80;99.90;;;;;;5054567;28;20048;-74
2023/03/22 01:53:42;;;;;;;0.20;0.20;;;8.80;99.90;;;;;;5054091;28;20056;-74
2023/03/22 01:56:09;;;;;;;0.20;0.20;;;8.80;99.90;;;;;;5036914;28;20451;-74
2023/03/22 01:58:36;;;;;;;0.17;0.17;;;8.80;99.90;;;;;;5054507;28;20021;-74
2023/03/22 02:01:04;;;;;;;0.10;0.10;;;8.80;99.90;;;;;;5054335;28;20021;-74
2023/03/22 02:03:40;;;;;;;0.10;0.10;;;8.80;99.90;;;;;;5054586;28;20049;-73
2023/03/22 02:06:06;;;;;;;0.20;0.20;;;8.70;99.90;;;;;;5035460;28;20021;-74
2023/03/22 02:08:32;;;;;;;0.10;0.10;;;8.80;99.90;;;;;;5054110;28;20025;-74
2023/03/22 02:11:00;;;;;;;0.10;0.10;;;8.80;99.90;;;;;;5054509;28;20013;-74
2023/03/22 02:13:46;;;;;;;0.20;0.20;;;8.70;99.90;;;;;;5054737;28;20099;-74
2023/03/22 02:16:35;;;;;;;0.10;0.10;;;8.80;99.90;;;;;;5053744;28;20078;-74
2023/03/22 02:19:22;;;;;;;0.20;0.20;;;8.80;99.90;;;;;;5054128;28;20036;-74
2023/03/22 02:22:01;;;;;;;0.13;0.13;;;8.80;99.90;;;;;;5054865;28;20032;-74
2023/03/22 02:25:12;;;;;;;0.20;0.20;;;8.80;99.90;;;;;;5053464;28;20024;-74
2023/03/22 02:28:07;;;;;;;0.20;0.20;;;8.70;99.90;;;;;;5054080;28;20029;-74
2023/03/22 02:31:03;;;;;;;0.20;0.20;;;8.80;99.90;;;;;;5054311;28;20513;-74
2023/03/22 02:33:51;;;;;;;0.10;0.10;;;8.70;99.90;;;;;;5036287;28;20029;-74
2023/03/22 02:36:40;;;;;;;0.15;0.15;;;8.60;99.90;;;;;;5053869;28;20502;-74
2023/03/22 02:39:14;;;;;;;0.10;0.10;;;8.70;99.90;;;;;;5054246;28;20395;-73
2023/03/22 02:41:54;;;;;;;0.10;0.10;;;8.70;99.90;;;;;;5054353;28;20036;-74
2023/03/22 02:44:29;;;;;;;0.10;0.10;;;8.80;99.90;;;;;;5054078;28;20100;-74
2023/03/22 02:47:19;;;;;;;0.10;0.10;;;8.80;99.90;;;;;;5053694;28;20048;-74
2023/03/22 02:50:06;;;;;;;0.20;0.20;;;8.80;99.90;;;;;;5054120;28;20045;-74
2023/03/22 02:52:55;;;;;;;0.10;0.10;;;8.80;99.90;;;;;;5053597;28;20052;-73
2023/03/22 02:55:43;;;;;;;0.10;0.10;;;8.70;99.90;;;;;;5054194;28;20493;-73
2023/03/22 02:58:38;;;;;;;0.20;0.20;;;8.80;99.90;;;;;;5035766;28;20021;-74
2023/03/22 03:01:07;;;;;;;0.20;0.20;;;8.80;99.90;;;;;;5054106;28;20024;-74
2023/03/22 03:03:39;;;;;;;0.10;0.10;;;8.90;99.90;;;;;;5053606;28;20075;-74
2023/03/22 03:06:09;;;;;;;0.20;0.20;;;8.80;99.90;;;;;;5053865;28;20528;-74
2023/03/22 03:08:37;;;;;;;0.10;0.10;;;8.80;99.90;;;;;;5053687;28;20045;-74
2023/03/22 03:11:03;;;;;;;0.17;0.17;;;8.80;99.90;;;;;;5035513;28;20031;-74
2023/03/22 03:13:29;;;;;;;0.20;0.20;;;8.80;99.90;;;;;;5053375;28;20112;-74
2023/03/22 03:15:58;;;;;;;0.20;0.20;;;8.80;99.90;;;;;;5053649;28;20029;-74
2023/03/22 03:18:52;;;;;;;0.20;0.20;;;8.80;99.90;;;;;;5053460;28;20044;-74
2023/03/22 03:21:35;;;;;;;0.10;0.10;;;8.80;99.90;;;;;;5039537;28;20029;-74
2023/03/22 03:24:22;;;;;;;0.20;0.20;;;8.80;99.90;;;;;;5057231;28;20028;-73
2023/03/22 03:26:58;;;;;;;0.20;0.20;;;8.80;99.90;;;;;;5057770;28;20469;-74
2023/03/22 03:29:49;;;;;;;0.15;0.15;;;8.80;99.90;;;;;;5057471;28;20459;-74
2023/03/22 03:32:44;;;;;;;0.20;0.20;;;8.80;99.90;;;;;;5037497;28;20036;-74
2023/03/22 03:35:16;;;;;;;0.10;0.10;;;8.90;99.90;;;;;;5036901;28;20152;-74
2023/03/22 03:37:48;;;;;;;0.17;0.17;;;8.90;99.90;;;;;;5037461;28;20025;-74
2023/03/22 03:40:42;;;;;;;0.10;0.10;;;8.80;99.90;;;;;;5037597;28;20029;-74
2023/03/22 03:43:11;;;;;;;;;;;8.90;99.90;;;;;;5035953;28;20447;-74
2023/03/22 03:45:38;;;;;;;0.20;0.20;;;9.00;99.90;;;;;;5037149;28;19912;-74
2023/03/22 03:48:09;;;;;;;0.20;0.20;;;8.90;99.90;;;;;;5038108;28;20048;-74
2023/03/22 03:50:35;;;;;;;0.10;0.10;;;8.90;99.90;;;;;;5056740;28;20062;-74
2023/03/22 03:53:02;;;;;;;0.10;0.10;;;8.90;99.90;;;;;;5057024;28;20405;-74
2023/03/22 03:55:28;;;;;;;0.20;0.20;;;8.90;99.90;;;;;;5056709;28;20064;-74
2023/03/22 03:57:54;;;;;;;0.10;0.10;;;8.90;99.90;;;;;;5056339;28;20021;-74
2023/03/22 04:00:19;;;;;;;0.20;0.20;;;8.90;99.90;;;;;;5038878;28;20028;-74
2023/03/22 04:02:45;;;;;;;0.10;0.10;;;8.90;99.90;;;;;;5056659;28;20055;-74
2023/03/22 04:05:11;;;;;;;0.20;0.20;;;8.90;99.90;;;;;;5038819;28;20052;-74
2023/03/22 04:07:38;;;;;;;0.15;0.15;;;8.90;99.90;;;;;;5055964;28;20525;-74
2023/03/22 04:10:04;;;;;;;0.20;0.20;;;8.90;99.90;;;;;;5039013;28;20060;-74
2023/03/22 04:12:31;;;;;;;0.15;0.15;;;8.90;99.90;;;;;;5056328;28;20029;-74
2023/03/22 04:14:57;;;;;;;0.20;0.20;;;8.90;99.90;;;;;;5056517;28;20078;-74
2023/03/22 04:17:23;;;;;;;0.20;0.20;;;8.90;99.90;;;;;;5055635;28;20112;-74
2023/03/22 04:19:48;;;;;;;0.20;0.20;;;8.90;99.90;;;;;;5056699;28;20494;-74
2023/03/22 04:22:17;;;;;;;0.13;0.13;;;8.90;99.90;;;;;;5056720;28;20033;-74
2023/03/22 04:24:48;;;;;;;0.10;0.10;;;8.90;99.90;;;;;;5056401;28;20027;-74
2023/03/22 04:27:18;;;;;;;0.10;0.10;;;8.80;99.90;;;;;;5056403;28;20049;-74
2023/03/22 04:29:47;;;;;;;0.10;0.10;;;8.80;99.90;;;;;;5055264;28;20021;-75
2023/03/22 04:32:21;;;;;;;0.10;0.10;;;8.80;99.90;;;;;;5055662;28;20096;-75
2023/03/22 04:34:48;;;;;;;0.20;0.20;;;8.90;99.90;;;;;;5038446;28;20402;-74
2023/03/22 04:37:14;;;;;;;0.10;0.10;;;8.80;99.90;;;;;;5055981;28;20495;-75
2023/03/22 04:39:41;;;;;;;0.20;0.20;;;8.80;99.90;;;;;;5056003;28;20024;-74
2023/03/22 04:42:07;;;;;;;0.13;0.13;;;8.80;99.90;;;;;;5055528;28;20075;-74
2023/03/22 04:44:32;;;;;;;0.20;0.20;;;8.80;99.90;;;;;;5056031;28;20028;-74
2023/03/22 04:47:01;;;;;;;0.15;0.15;;;8.80;99.90;;;;;;5042719;28;20029;-74
2023/03/22 04:49:27;;;;;;;0.10;0.10;;;8.80;99.90;;;;;;5055149;28;20021;-75
2023/03/22 04:51:54;;;;;;;0.10;0.10;;;8.70;99.90;;;;;;5038063;28;20029;-74
2023/03/22 04:54:20;;;;;;;0.10;0.10;;;8.80;99.90;;;;;;5055735;28;20013;-74
2023/03/22 04:56:46;;;;;;;0.10;0.10;;;8.80;99.90;;;;;;5055988;28;20025;-74
2023/03/22 04:59:12;;;;;;;0.10;0.10;;;8.80;99.90;;;;;;5055835;28;20025;-74
2023/03/22 05:01:39;;;;;;;0.20;0.20;;;8.80;99.90;;;;;;5037225;28;20063;-74
2023/03/22 05:04:05;;;;;;;0.20;0.20;;;8.80;99.90;;;;;;5055619;28;20021;-74
2023/03/22 05:06:32;;;;;;;0.15;0.15;;;8.80;99.90;;;;;;5037560;28;20500;-74
2023/03/22 05:08:58;;;;;;;0.20;0.20;;;8.90;99.90;;;;;;5055727;28;20013;-74
2023/03/22 05:11:26;;;;;;;0.10;0.10;;;8.80;99.90;;;;;;5054964;28;20066;-74
2023/03/22 05:13:53;;;;;;;0.10;0.10;;;8.80;99.90;;;;;;5037587;28;20025;-74
2023/03/22 05:16:18;;;;;;;0.10;0.10;;;8.80;99.90;;;;;;5055925;28;20032;-74
2023/03/22 05:18:44;;;;;;;0.20;0.20;;;8.90;99.90;;;;;;5055149;28;20029;-75
2023/03/22 05:21:14;;;;;;;0.10;0.10;;;8.80;99.90;;;;;;5054508;28;20020;-74
2023/03/22 05:23:42;;;;;;;0.10;0.10;;;8.80;99.90;;;;;;5037301;28;20037;-74
2023/03/22 05:26:09;;;;;;;0.13;0.13;;;8.80;99.90;;;;;;5054946;28;20029;-74
2023/03/22 05:28:35;;;;;;;0.20;0.20;;;8.90;99.90;;;;;;5056359;28;20056;-73
2023/03/22 05:31:00;;;;;;;0.20;0.20;;;8.80;99.90;;;;;;5055692;28;20028;-73
2023/03/22 05:33:28;;;;;;;0.10;0.10;;;8.80;99.90;;;;;;5056386;28;20108;-74
2023/03/22 05:35:53;;;;;;;0.20;0.20;;;8.80;99.90;;;;;;5056288;28;20025;-74
2023/03/22 05:38:21;;;;;;;0.20;0.20;;;8.90;99.90;;;;;;5054884;28;20509;-74
2023/03/22 05:40:47;;;;;;;0.13;0.13;;;8.80;99.90;;;;;;5054154;28;20023;-74
2023/03/22 05:43:13;;;;;;;0.10;0.10;;;8.80;99.90;;;;;;5054182;28;20038;-74
2023/03/22 05:45:39;;;;;;;0.10;0.10;;;8.80;99.90;;;;;;5055108;28;20025;-74
2023/03/22 05:48:04;;;;;;;0.10;0.10;;;8.80;99.90;;;;;;5036466;28;20036;-74
2023/03/22 05:50:30;;;;;;;0.20;0.20;;;8.80;99.90;;;;;;5037167;28;20025;-74
2023/03/22 05:52:56;;;;;;;0.10;0.10;;;8.80;99.90;;;;;;5035990;28;20052;-74
2023/03/22 05:55:22;;;;;;;0.20;0.20;;;8.80;99.90;;;;;;5054825;28;20367;-74
2023/03/22 05:57:50;;;;;;;0.10;0.10;;;8.80;99.90;;;;;;5054850;28;20056;-74
2023/03/22 06:00:17;;;;;;;0.13;0.13;;;8.80;99.90;;;;;;5054094;28;20035;-75
2023/03/22 06:02:44;;;;;;;0.10;0.10;;;8.80;99.90;;;;;;5053863;28;20486;-74
2023/03/22 06:05:11;;;;;;;0.10;0.10;;;8.80;99.90;;;;;;5054183;28;20035;-74
2023/03/22 06:07:37;;;;;;;0.20;0.20;;;8.80;99.90;;;;;;5054553;28;20070;-74
2023/03/22 06:10:04;;;;;;;0.10;0.10;;;8.80;99.90;;;;;;5054286;28;20013;-74
2023/03/22 06:12:30;;;;;;;0.10;0.10;;;8.80;99.90;;;;;;5053853;28;20025;-74
2023/03/22 06:14:56;;;;;;;0.20;0.20;;;8.80;99.90;;;;;;5054416;28;20029;-74
2023/03/22 06:17:22;;;;;;;0.10;0.10;;;8.80;99.90;;;;;;5053998;28;20032;-74
2023/03/22 06:19:48;;;;;;;0.10;0.10;;;8.90;99.90;;;;;;5054115;28;20033;-74
2023/03/22 06:22:14;;;;;;;0.20;0.20;;;8.90;99.90;;;;;;5053458;28;20040;-74
2023/03/22 06:24:41;;;;;;;0.20;0.20;;;8.90;99.90;;;;;;5053853;28;20413;-74
2023/03/22 06:27:07;;;;;;;0.10;0.10;;;8.90;99.90;;;;;;5054417;28;20390;-74
2023/03/22 06:29:32;;;;;;;0.20;0.20;;;8.90;99.90;;;;;;5053766;28;20024;-74
2023/03/22 06:31:58;;;;;;;0.10;0.10;;;8.90;99.90;;;;;;5053929;28;20032;-74
2023/03/22 06:34:25;;;;;;;0.10;0.10;;;8.90;99.90;;;;;;5053355;28;20067;-74
2023/03/22 06:36:52;;;;;;;0.10;0.10;;;8.90;99.90;;;;;;5054110;28;20382;-74
2023/03/22 06:39:17;;;;;;;0.10;0.10;;;8.90;99.90;;;;;;5053557;28;20032;-75
2023/03/22 06:41:43;;;;;;;0.20;0.20;;;8.90;99.90;;;;;;5053863;28;20029;-74
2023/03/22 06:44:09;;;;;;;0.10;0.10;;;8.90;99.90;;;;;;5036994;28;20020;-74
2023/03/22 06:46:34;;;;;;;0.20;0.20;;;8.90;99.90;;;;;;5052888;28;20017;-74
2023/03/22 06:49:00;;;;;;;0.20;0.20;;;8.90;99.90;;;;;;5035683;28;20056;-74
2023/03/22 06:51:25;;;;;;;0.20;0.20;;;8.90;99.90;;;;;;5053555;28;20107;-74
2023/03/22 06:53:51;;;;;;;0.10;0.10;;;8.90;99.90;;;;;;5053825;28;20041;-74
2023/03/22 06:56:16;;;;;;;0.10;0.10;;;9.00;99.90;;;;;;5052986;28;20025;-75
2023/03/22 06:58:42;;;;;;;0.13;0.13;;;8.90;99.90;;;;;;5035751;28;20498;-74
2023/03/22 07:01:07;;;;;;;0.10;0.10;;;9.00;99.90;;;;;;5053521;28;20037;-74
2023/03/22 07:03:33;;;;;;;0.17;0.17;;;8.90;99.90;;;;;;5035350;28;20489;-75
2023/03/22 07:06:03;;;;;;;0.13;0.13;;;9.00;99.90;;;;;;5053251;28;20482;-74
2023/03/22 07:08:29;;;;;;;0.20;0.20;;;9.00;99.90;;;;;;5053269;28;20047;-73
2023/03/22 07:10:55;;;;;;;0.15;0.15;;;9.10;99.90;;;;;;5053566;28;20088;-74
2023/03/22 07:13:21;;;;;;;0.10;0.10;;;9.10;99.90;;;;;;5053308;28;20072;-73
2023/03/22 07:15:46;;;;;;;0.10;0.10;;;9.00;99.90;;;;;;5053319;28;20029;-74
2023/03/22 07:18:12;;;;;;;0.10;0.10;;;9.00;99.90;;;;;;5035402;28;20128;-73
2023/03/22 07:20:40;;;;;;;0.10;0.10;;;8.90;99.90;;;;;;5052852;28;20036;-73
2023/03/22 07:23:06;;;;;;;0.10;0.10;;;8.90;99.90;;;;;;5053315;28;20490;-73
2023/03/22 07:25:32;;;;;;;0.10;0.10;;;8.90;99.90;;;;;;5053097;28;20079;-73
2023/03/22 07:27:59;;;;;;;0.20;0.20;;;8.80;99.90;;;;;;5053201;28;20017;-73
2023/03/22 07:30:24;;;;;;;0.10;0.10;;;8.90;99.90;;;;;;5053413;28;20021;-73
2023/03/22 07:32:50;;;;;;;0.20;0.20;;;8.90;99.90;;;;;;5053180;28;20497;-73
2023/03/22 07:35:17;;;;;;;0.10;0.10;;;8.90;99.90;;;;;;5052650;28;20029;-73
2023/03/22 07:37:43;;;;;;;0.10;0.10;;;8.90;99.90;;;;;;5053152;28;20021;-73
2023/03/22 07:40:10;;;;;;;0.10;0.10;;;8.90;99.90;;;;;;5053569;28;20417;-74
2023/03/22 07:42:35;;;;;;;0.10;0.10;;;9.00;99.90;;;;;;5034969;28;20025;-74
2023/03/22 07:45:02;;;;;;;0.10;0.10;;;9.00;99.90;;;;;;5053149;28;20078;-74
2023/03/22 07:47:28;;;;;;;0.10;0.10;;;9.10;99.90;;;;;;5052567;28;20025;-73
2023/03/22 07:49:53;;;;;;;0.15;0.15;;;9.10;99.90;;;;;;5053113;28;20025;-73
2023/03/22 07:52:19;;;;;;;0.13;0.13;;;9.10;99.90;;;;;;5053371;28;20521;-73
2023/03/22 07:54:44;;;;;;;0.13;0.13;;;9.10;99.90;;;;;;5035149;28;20025;-73
2023/03/22 07:57:10;;;;;;;0.20;0.20;;;9.10;99.90;;;;;;5052653;28;20025;-73
2023/03/22 07:59:35;;;;;;;0.10;0.10;;;9.20;99.90;;;;;;5052810;28;20036;-73
2023/03/22 08:02:01;;;;;;;0.10;0.10;;;9.20;99.90;;;;;;5052862;28;20029;-74
2023/03/22 08:04:27;;;;;;;0.20;0.20;;;9.30;99.90;;;;;;5049860;28;20029;-73
2023/03/22 08:06:58;;;;;;;0.10;0.10;;;9.30;99.90;;;;;;5018615;28;20025;-74
2023/03/22 08:09:25;;;;;;;0.20;0.20;;;9.30;99.90;;;;;;5036479;28;20363;-73
2023/03/22 08:11:51;;;;;;;0.10;0.10;;;9.40;99.90;;;;;;5018883;28;20364;-73
2023/03/22 08:14:16;;;;;;;0.10;0.10;;;9.50;99.90;;;;;;5036416;28;20024;-73
2023/03/22 08:16:43;;;;;;;0.10;0.10;;;9.60;99.90;;;;;;5029010;28;20036;-73
2023/03/22 08:19:09;;;;;;;0.10;0.10;;;9.60;99.90;;;;;;5056350;28;20033;-73
2023/03/22 08:21:35;;;;;;;0.10;0.10;;;9.80;99.90;;;;;;5056510;28;20031;-73
2023/03/22 08:24:01;;;;;;;0.20;0.20;;;9.90;99.90;;;;;;5056358;28;20441;-73
2023/03/22 08:26:27;;;;;;;0.10;0.10;;;10.00;99.90;;;;;;5056409;28;20025;-73
2023/03/22 08:28:53;;;;;;;0.10;0.10;;;10.20;99.90;;;;;;5056459;28;20063;-73
2023/03/22 08:31:19;;;;;;;0.20;0.20;;;10.20;99.90;;;;;;5055608;28;20021;-73
2023/03/22 08:33:45;;;;;;;0.10;0.10;;;10.20;99.90;;;;;;5056100;28;20087;-73
2023/03/22 08:36:16;;;;;;;0.20;0.20;;;10.20;99.90;;;;;;5056425;28;20032;-73
2023/03/22 08:38:44;;;;;;;0.10;0.10;;;10.10;99.90;;;;;;5055964;28;20083;-73
2023/03/22 08:41:10;;;;;;;0.10;0.10;;;10.10;99.90;;;;;;5055773;28;20421;-74
2023/03/22 08:43:35;;;;;;;0.10;0.10;;;10.10;99.90;;;;;;5037797;28;20027;-73
2023/03/22 08:46:02;;;;;;;0.10;0.10;;;10.10;99.90;;;;;;5056722;28;20060;-73
2023/03/22 08:48:29;;;;;;;0.10;0.10;;;10.10;99.90;;;;;;5055611;28;20494;-73
2023/03/22 08:50:55;;;;;;;0.10;0.10;;;10.10;99.90;;;;;;5055928;28;20025;-74
2023/03/22 08:53:21;;;;;;;0.17;0.17;;;10.10;99.90;;;;;;5055100;28;20036;-74
2023/03/22 08:55:49;;;;;;;0.10;0.10;;;10.10;99.90;;;;;;5055672;28;20025;-74
2023/03/22 08:58:17;;;;;;;0.10;0.10;;;10.20;99.90;;;;;;5037987;28;20047;-74
2023/03/22 09:00:42;;;;;;;0.10;0.10;;;10.20;99.90;;;;;;5037499;28;20421;-73
2023/03/22 09:03:08;;;;;;;0.17;0.17;;;10.20;99.90;;;;;;5037715;28;20032;-73
2023/03/22 09:05:34;;;;;;;0.13;0.13;;;10.20;99.90;;;;;;5054951;28;20474;-72
2023/03/22 09:08:01;;;;;;;0.20;0.20;;;10.20;99.90;;;;;;5055464;28;20021;-73
2023/03/22 09:10:27;;;;;;;0.15;0.15;;;10.20;99.90;;;;;;5055458;28;20017;-73
2023/03/22 09:12:52;;;;;;;0.20;0.20;;;10.20;99.90;;;;;;5054699;28;20025;-73
2023/03/22 09:15:18;;;;;;;0.20;0.20;;;10.20;99.90;;;;;;5037617;28;20062;-73
2023/03/22 09:17:43;;;;;;;0.10;0.10;;;10.10;99.90;;;;;;5055079;28;20025;-73
2023/03/22 09:20:09;;;;;;;0.20;0.20;;;10.10;99.90;;;;;;5055348;28;20032;-74
2023/03/22 09:22:35;;;;;;;0.10;0.10;;;10.10;99.90;;;;;;5054920;28;20064;-74
2023/03/22 09:25:04;;;;;;;0.20;0.20;;;10.10;99.90;;;;;;5055279;28;20067;-76
2023/03/22 09:27:29;;;;;;;0.20;0.20;;;10.10;99.90;;;;;;5055090;28;20017;-74
2023/03/22 09:29:55;;;;;;;0.10;0.10;;;10.10;99.90;;;;;;5056412;28;20024;-74
2023/03/22 09:32:21;;;;;;;0.10;0.10;;;10.10;99.90;;;;;;5038653;28;20029;-74
2023/03/22 09:34:46;;;;;;;0.17;0.17;;;10.20;99.90;;;;;;5056100;28;20033;-74
2023/03/22 09:37:13;;;;;;;0.20;0.20;;;10.20;99.90;;;;;;5055841;28;20021;-75
2023/03/22 09:39:39;;;;;;;0.10;0.10;;;10.20;99.90;;;;;;5036984;28;20056;-75
2023/03/22 09:42:20;;;;;;;0.13;0.13;;;10.30;99.90;;;;;;5055059;28;20029;-75
2023/03/22 09:44:47;;;;;;;0.10;0.10;;;10.30;99.90;;;;;;5037017;28;20017;-75
2023/03/22 09:47:18;;;;;;;0.10;0.10;;;10.40;99.90;;;;;;5055128;28;20104;-75
2023/03/22 09:49:48;;;;;;;0.10;0.10;;;10.50;99.90;;;;;;5037143;28;20106;-74
2023/03/22 09:52:16;;;;;;;0.10;0.10;;;10.50;99.90;;;;;;5036870;28;20025;-75
2023/03/22 09:54:45;;;;;;;0.15;0.15;;;10.50;99.90;;;;;;5055022;28;20025;-75
2023/03/22 09:57:28;;;;;;;0.10;0.10;;;10.50;99.90;;;;;;5036829;28;20029;-75
2023/03/22 10:00:10;;;;;;;0.10;0.10;;;10.50;99.90;;;;;;5054771;28;20040;-74
2023/03/22 10:02:50;;;;;;;0.15;0.15;;;10.60;99.90;;;;;;5036112;28;20508;-74
2023/03/22 10:05:21;;;;;;;0.10;0.10;;;10.60;99.90;;;;;;5055294;28;20029;-74
2023/03/22 10:08:16;;;;;;;0.15;0.15;;;10.50;99.90;;;;;;5054482;28;20023;-74
2023/03/22 10:10:42;;;;;;;0.15;0.15;;;10.50;99.90;;;;;;5037053;28;20391;-74
2023/03/22 10:13:22;;;;;;;0.15;0.15;;;10.50;99.90;;;;;;5036318;28;20025;-75
2023/03/22 10:15:58;;;;;;;0.20;0.20;;;10.40;99.90;;;;;;5037268;28;20032;-76
2023/03/22 10:18:39;;;;;;;0.10;0.10;;;10.40;99.90;;;;;;5036110;28;20110;-74
2023/03/22 10:21:08;;;;;;;0.20;0.20;;;10.50;99.90;;;;;;5054508;28;20029;-74
2023/03/22 10:23:52;;;;;;;0.20;0.20;;;10.50;99.90;;;;;;5053987;28;20078;-75
2023/03/22 10:26:24;;;;;;;0.10;0.10;;;10.50;99.90;;;;;;5053954;28;20119;-75
2023/03/22 10:28:58;;;;;;;0.10;0.10;;;10.50;99.90;;;;;;5053565;28;20119;-74
2023/03/22 10:31:26;;;;;;;0.10;0.10;;;10.60;99.90;;;;;;5054312;28;20036;-75
2023/03/22 10:34:00;;;;;;;0.20;0.20;;;10.60;99.90;;;;;;5036116;28;20060;-74
2023/03/22 10:36:33;;;;;;;0.20;0.20;;;10.60;99.90;;;;;;5054453;28;20017;-74
2023/03/22 10:39:27;;;;;;;0.20;0.20;;;10.60;99.90;;;;;;5053372;28;20017;-74
2023/03/22 10:41:55;;;;;;;0.10;0.10;;;10.60;99.90;;;;;;5033022;28;20097;-74
2023/03/22 10:44:25;;;;;;;0.10;0.10;;;10.60;99.90;;;;;;5033944;28;20475;-74
2023/03/22 10:46:53;;;;;;;0.10;0.10;;;10.50;99.90;;;;;;5034318;28;20017;-74
2023/03/22 10:49:28;;;;;;;0.10;0.10;;;10.50;99.90;;;;;;5033370;28;20089;-74
2023/03/22 10:52:00;;;;;;;0.10;0.10;;;10.50;99.90;;;;;;5043864;28;20543;-74
2023/03/22 10:54:27;;;;;;;0.10;0.10;;;10.60;99.90;;;;;;5054069;28;20117;-74
2023/03/22 10:56:52;;;;;;;0.10;0.10;;;10.70;99.90;;;;;;5053691;28;20420;-74
2023/03/22 10:59:41;;;;;;;0.20;0.20;;;10.70;99.90;;;;;;5035478;28;20024;-74
2023/03/22 11:02:17;;;;;;;0.20;0.20;;;10.70;99.90;;;;;;5053409;28;20033;-74
2023/03/22 11:04:57;;;;;;;0.15;0.15;;;10.70;99.90;;;;;;5053831;28;20051;-74
2023/03/22 11:07:43;;;;;;;0.20;0.20;;;10.70;99.90;;;;;;5035624;28;20028;-73
2023/03/22 11:10:09;;;;;;;0.10;0.10;;;10.70;99.90;;;;;;5035112;28;20028;-75
2023/03/22 11:12:36;;;;;;;0.10;0.10;;;10.70;99.90;;;;;;5054307;28;20536;-77
2023/03/22 11:15:03;;;;;;;0.10;0.10;;;10.60;99.90;;;;;;5054083;28;20037;-74
2023/03/22 11:17:30;;;;;;;0.10;0.10;;;10.60;99.90;;;;;;5053569;28;20060;-74
2023/03/22 11:20:04;;;;;;;0.10;0.10;;;10.60;99.90;;;;;;5053436;28;20546;-75
2023/03/22 11:22:36;;;;;;;0.10;0.10;;;10.60;99.90;;;;;;5053071;28;20037;-74
2023/03/22 11:25:12;;;;;;;0.20;0.20;;;10.50;99.90;;;;;;5035898;28;20398;-75
2023/03/22 11:27:50;;;;;;;0.10;0.10;;;10.50;99.90;;;;;;5035652;28;20053;-74
2023/03/22 11:30:24;;;;;;;0.10;0.10;;;10.50;99.90;;;;;;5035188;28;20108;-74
2023/03/22 11:33:07;;;;;;;0.10;0.10;;;10.50;99.90;;;;;;5035618;28;20032;-75
2023/03/22 11:35:36;;;;;;;0.20;0.20;;;10.50;99.90;;;;;;5035674;28;20032;-74
2023/03/22 11:38:03;;;;;;;0.17;0.17;;;10.40;99.90;;;;;;5035218;28;20044;-74
2023/03/22 11:40:35;;;;;;;0.10;0.10;;;10.40;99.90;;;;;;5055151;28;20490;-74
2023/03/22 11:43:15;;;;;;;0.10;0.10;;;10.40;99.90;;;;;;5038759;28;20164;-74
2023/03/22 11:45:43;;;;;;;0.20;0.20;;;10.30;99.90;;;;;;5057513;28;20060;-74
2023/03/22 11:48:14;;;;;;;0.10;0.10;;;10.30;99.90;;;;;;5056986;28;20028;-74
2023/03/22 11:50:42;;;;;;;0.10;0.10;;;10.30;99.90;;;;;;5039392;28;20024;-74
2023/03/22 11:53:13;;;;;;;0.10;0.10;;;10.20;99.90;;;;;;5039495;28;20112;-74
2023/03/22 11:55:40;;;;;;;0.20;0.20;;;10.20;99.90;;;;;;5056708;28;20033;-74
2023/03/22 11:58:06;;;;;;;0.13;0.13;;;10.10;99.90;;;;;;5056878;28;20025;-74
2023/03/22 12:00:36;;;;;;;0.20;0.20;;;10.10;99.90;;;;;;5056988;28;20029;-74
2023/03/22 12:03:08;;;;;;;0.10;0.10;;;10.10;99.90;;;;;;5056787;28;20033;-73
2023/03/22 12:05:38;;;;;;;0.05;0.05;;;10.00;99.90;;;;;;5056362;28;20505;-74
2023/03/22 12:08:45;;;;;;;0.13;0.13;;;10.00;99.90;;;;;;5056834;28;20029;-73
2023/03/22 12:11:19;;;;;;;0.10;0.10;;;10.00;99.90;;;;;;4993494;28;20037;-73
2023/03/22 12:13:57;;;;;;;0.20;0.20;;;9.90;99.90;;;;;;5038736;28;20025;-73
2023/03/22 12:16:51;;;;;;;0.10;0.10;;;9.90;99.90;;;;;;5056248;28;20028;-72
2023/03/22 12:19:40;;;;;;;0.10;0.10;;;10.00;99.90;;;;;;5038805;28;20056;-73
2023/03/22 12:22:18;;;;;;;0.10;0.10;;;9.90;99.90;;;;;;5038780;28;20071;-73
2023/03/22 12:24:44;;;;;;;0.10;0.10;;;9.90;99.90;;;;;;5056141;28;20025;-72
2023/03/22 12:27:24;;;;;;;0.10;0.10;;;9.90;99.90;;;;;;5056465;28;20021;-72
2023/03/22 12:30:10;;;;;;;0.10;0.10;;;9.80;99.90;;;;;;5056310;28;20013;-72
2023/03/22 12:32:44;;;;;;;0.20;0.20;;;9.80;99.90;;;;;;5056475;28;20029;-72
2023/03/22 12:35:21;;;;;;;0.20;0.20;;;9.80;99.90;;;;;;5056256;28;20394;-72
2023/03/22 12:37:54;;;;;;;0.10;0.10;;;9.80;99.90;;;;;;5037915;28;20063;-72
2023/03/22 12:40:25;;;;;;;0.05;0.05;;;9.80;99.90;;;;;;5056336;28;20033;-72
2023/03/22 12:43:20;;;;;;;0.10;0.10;;;9.70;99.90;;;;;;5056177;28;20029;-72
2023/03/22 12:45:52;;;;;;;0.10;0.10;;;9.80;99.90;;;;;;5056183;28;20394;-72
2023/03/22 12:48:41;;;;;;;0.13;0.13;;;9.70;99.90;;;;;;5056394;28;20056;-73
2023/03/22 12:51:11;;;;;;;0.10;0.10;;;9.70;99.90;;;;;;5055796;28;20028;-73
2023/03/22 12:53:46;;;;;;;0.20;0.20;;;9.70;99.90;;;;;;5056103;28;20029;-72
2023/03/22 12:56:16;;;;;;;0.10;0.10;;;9.70;99.90;;;;;;5056008;28;20076;-73
2023/03/22 12:58:47;;;;;;;0.10;0.10;;;9.70;99.90;;;;;;5055963;28;20037;-72
2023/03/22 13:01:21;;;;;;;0.10;0.10;;;9.70;99.90;;;;;;5055299;28;20112;-72
2023/03/22 13:03:51;;;;;;;0.10;0.10;;;9.60;99.90;;;;;;5038025;28;20060;-73
2023/03/22 13:06:44;;;;;;;0.10;0.10;;;9.50;99.90;;;;;;5055888;28;20394;-72
2023/03/22 13:09:33;;;;;;;0.10;0.10;;;9.60;99.90;;;;;;5055688;28;20021;-72
2023/03/22 13:12:16;;;;;;;0.20;0.20;;;9.50;99.90;;;;;;5054353;28;20108;-72